Time;durP1;ratioP1;P1;durP2;ratioP2;P2;SDS_P1;SDS_P2;PMS_P1;PMS_P2;Temp;Humidity;BMP_temperature;BMP_pressure;BME280_temperature;BME280_humidity;BME280_pressure;Samples;Min_cycle;Max_cycle;Signal;HPM_P1;HPM_P2
2023/06/26 00:04:25;;;;;;;;;;;;;;;20.31;100.00;95692.44;10432677;28;2176;-73
2023/06/26 00:09:28;;;;;;;;;;;;;;;20.15;100.00;95689.53;10442369;28;2024;-72
2023/06/26 00:14:31;;;;;;;;;;;;;;;20.18;100.00;95683.41;10445440;28;1932;-73
2023/06/26 00:19:33;;;;;;;;;;;;;;;20.22;100.00;95690.56;10447651;28;2012;-73
2023/06/26 00:24:36;;;;;;;;;;;;;;;20.75;98.25;95690.81;10449533;28;2285;-72
2023/06/26 00:29:39;;;;;;;;;;;;;;;20.89;96.43;95691.28;10451175;28;1982;-72
2023/06/26 00:34:41;;;;;;;;;;;;;;;20.68;96.93;95696.84;10441536;28;1963;-73
2023/06/26 00:39:43;;;;;;;;;;;;;;;20.58;98.21;95693.75;10439151;28;2202;-72
2023/06/26 00:44:46;;;;;;;;;;;;;;;20.52;97.95;95693.97;10439254;28;4703;-74
2023/06/26 00:49:48;;;;;;;;;;;;;;;20.56;95.95;95693.31;10446070;28;2326;-73
2023/06/26 00:54:52;;;;;;;;;;;;;;;20.46;94.89;95689.06;10447435;28;1919;-74
2023/06/26 00:59:54;;;;;;;;;;;;;;;20.34;95.95;95694.47;10437117;28;2064;-74
2023/06/26 01:04:57;;;;;;;;;;;;;;;20.50;95.33;95695.44;10438301;28;1990;-74
2023/06/26 01:09:59;;;;;;;;;;;;;;;20.53;94.74;95689.31;10444869;28;1985;-74
2023/06/26 01:15:02;;;;;;;;;;;;;;;20.79;94.30;95680.78;10447414;28;2022;-73
2023/06/26 01:20:05;;;;;;;;;;;;;;;20.03;97.38;95684.03;10419818;28;1947;-73
2023/06/26 01:25:08;;;;;;;;;;;;;;;20.67;96.53;95688.97;10437283;28;1979;-73
2023/06/26 01:30:10;;;;;;;;;;;;;;;20.39;97.71;95686.88;10438963;28;1987;-72
2023/06/26 01:35:13;;;;;;;;;;;;;;;20.27;99.08;95681.38;10439728;28;2041;-74
2023/06/26 01:40:15;;;;;;;;;;;;;;;20.43;98.90;95679.59;10444737;28;2106;-73
2023/06/26 01:45:18;;;;;;;;;;;;;;;19.86;100.00;95683.06;10445834;28;4533;-73
2023/06/26 01:50:20;;;;;;;;;;;;;;;20.07;100.00;95677.56;10443558;28;2120;-73
2023/06/26 01:55:22;;;;;;;;;;;;;;;19.70;100.00;95676.63;10439344;28;1966;-74
2023/06/26 02:00:25;;;;;;;;;;;;;;;19.41;100.00;95672.84;10441544;28;2185;-73
2023/06/26 02:05:30;;;;;;;;;;;;;;;19.48;100.00;95674.22;10440606;28;1986;-73
2023/06/26 02:10:33;;;;;;;;;;;;;;;19.69;100.00;95673.09;10418728;28;2051;-74
2023/06/26 02:15:35;;;;;;;;;;;;;;;19.52;100.00;95680.59;10432976;28;1966;-74
2023/06/26 02:20:37;;;;;;;;;;;;;;;19.26;100.00;95675.34;10443848;28;2037;-74
2023/06/26 02:25:41;;;;;;;;;;;;;;;19.10;100.00;95684.09;10446281;28;2032;-74
2023/06/26 02:30:43;;;;;;;;;;;;;;;19.53;100.00;95679.47;10442218;28;2066;-75
2023/06/26 02:35:46;;;;;;;;;;;;;;;19.59;100.00;95684.41;10420037;28;2132;-74
2023/06/26 02:40:48;;;;;;;;;;;;;;;19.44;100.00;95688.50;10445568;28;2031;-76
2023/06/26 02:45:50;;;;;;;;;;;;;;;19.18;100.00;95682.44;10440215;28;4527;-74
2023/06/26 02:50:53;;;;;;;;;;;;;;;19.17;100.00;95684.38;10438152;28;2224;-73
2023/06/26 02:55:55;;;;;;;;;;;;;;;19.08;100.00;95686.34;10441617;28;1931;-72
2023/06/26 03:00:57;;;;;;;;;;;;;;;18.89;100.00;95684.06;10432414;28;1765;-71
2023/06/26 03:06:00;;;;;;;;;;;;;;;18.95;100.00;95679.19;10441212;28;1917;-72
2023/06/26 03:11:02;;;;;;;;;;;;;;;19.22;100.00;95675.22;10432970;28;2238;-73
2023/06/26 03:16:04;;;;;;;;;;;;;;;19.15;100.00;95675.75;10435008;28;2054;-73
2023/06/26 03:21:07;;;;;;;;;;;;;;;19.35;100.00;95676.09;10436173;28;1970;-73
2023/06/26 03:26:09;;;;;;;;;;;;;;;19.60;100.00;95679.78;10438306;28;2177;-72
2023/06/26 03:31:12;;;;;;;;;;;;;;;19.52;100.00;95672.41;10432323;28;1966;-74
2023/06/26 03:36:14;;;;;;;;;;;;;;;19.28;100.00;95679.34;10441326;28;2090;-72
2023/06/26 03:41:16;;;;;;;;;;;;;;;19.40;100.00;95678.59;10436101;28;4600;-72
2023/06/26 03:46:19;;;;;;;;;;;;;;;19.01;100.00;95686.06;10441105;28;2587;-73
2023/06/26 03:51:22;;;;;;;;;;;;;;;19.23;100.00;95679.53;10448392;28;2029;-72
2023/06/26 03:56:24;;;;;;;;;;;;;;;19.65;100.00;95676.81;10448328;28;2109;-73
2023/06/26 04:01:27;;;;;;;;;;;;;;;20.11;100.00;95683.16;10431120;28;2025;-72
2023/06/26 04:06:31;;;;;;;;;;;;;;;19.86;100.00;95680.34;10446514;28;1970;-74
2023/06/26 04:11:33;;;;;;;;;;;;;;;20.11;100.00;95683.16;10445418;28;2080;-74
2023/06/26 04:16:36;;;;;;;;;;;;;;;20.44;100.00;95686.66;10449534;28;1928;-73
2023/06/26 04:21:39;;;;;;;;;;;;;;;20.35;100.00;95680.47;10453040;28;2049;-74
2023/06/26 04:26:42;;;;;;;;;;;;;;;20.72;100.00;95683.28;10447185;28;2039;-73
2023/06/26 04:31:46;;;;;;;;;;;;;;;20.91;100.00;95678.06;10441547;28;2002;-74
2023/06/26 04:36:50;;;;;;;;;;;;;;;21.08;100.00;95687.97;10448574;28;2380;-76
2023/06/26 04:41:53;;;;;;;;;;;;;;;21.30;100.00;95689.44;10448494;28;1981;-73
2023/06/26 04:46:56;;;;;;;;;;;;;;;21.35;99.50;95686.47;10449968;28;2075;-73
2023/06/26 04:51:59;;;;;;;;;;;;;;;21.37;100.00;95686.13;10450133;28;1935;-74
2023/06/26 04:57:02;;;;;;;;;;;;;;;21.62;100.00;95678.66;10448021;28;1965;-74
2023/06/26 05:02:05;;;;;;;;;;;;;;;21.56;99.72;95683.56;10444208;28;1942;-73
2023/06/26 05:07:08;;;;;;;;;;;;;;;21.83;98.01;95682.81;10448437;28;1909;-73
2023/06/26 05:12:11;;;;;;;;;;;;;;;21.99;97.21;95682.06;10444600;28;1967;-73
2023/06/26 05:17:14;;;;;;;;;;;;;;;22.22;96.66;95677.66;10446024;28;2068;-73
2023/06/26 05:22:17;;;;;;;;;;;;;;;22.39;95.55;95679.25;10450212;28;2207;-73
2023/06/26 05:27:21;;;;;;;;;;;;;;;22.41;96.31;95682.47;10449101;28;1969;-73
2023/06/26 05:32:24;;;;;;;;;;;;;;;22.77;94.39;95684.16;10440125;28;2303;-75
2023/06/26 05:37:27;;;;;;;;;;;;;;;23.07;90.86;95679.03;10443149;28;1974;-75
2023/06/26 05:42:29;;;;;;;;;;;;;;;23.12;89.99;95680.72;10448071;28;4533;-75
2023/06/26 05:47:32;;;;;;;;;;;;;;;23.28;87.85;95683.41;10444208;28;1989;-74
2023/06/26 05:52:35;;;;;;;;;;;;;;;23.51;85.47;95684.34;10427359;28;1967;-76
2023/06/26 05:57:37;;;;;;;;;;;;;;;23.82;82.52;95688.16;10445607;28;2007;-77
2023/06/26 06:02:39;;;;;;;;;;;;;;;23.98;81.18;95680.63;10439081;28;1848;-76
2023/06/26 06:07:42;;;;;;;;;;;;;;;24.18;79.87;95678.69;10438707;28;2057;-74
2023/06/26 06:12:44;;;;;;;;;;;;;;;24.57;77.42;95667.66;10439194;28;1966;-77
2023/06/26 06:17:47;;;;;;;;;;;;;;;24.87;76.24;95676.78;10437150;28;2083;-77
2023/06/26 06:22:49;;;;;;;;;;;;;;;25.16;74.84;95678.06;10438143;28;1963;-73
2023/06/26 06:27:51;;;;;;;;;;;;;;;25.37;72.39;95679.53;10441097;28;2347;-74
2023/06/26 06:32:54;;;;;;;;;;;;;;;25.82;69.75;95671.13;10441941;28;2045;-74
2023/06/26 06:37:56;;;;;;;;;;;;;;;26.05;65.69;95678.50;10442507;28;1933;-72
2023/06/26 06:42:59;;;;;;;;;;;;;;;25.95;69.22;95684.66;10438585;28;4786;-73
2023/06/26 06:48:01;;;;;;;;;;;;;;;25.95;69.17;95684.66;10437709;28;1999;-73
2023/06/26 06:53:04;;;;;;;;;;;;;;;26.42;65.99;95675.81;10441586;28;1921;-71
2023/06/26 06:58:06;;;;;;;;;;;;;;;26.65;67.25;95681.13;10437888;28;2054;-73
2023/06/26 07:03:10;;;;;;;;;;;;;;;26.63;68.70;95675.22;10442537;28;1974;-72
2023/06/26 07:08:13;;;;;;;;;;;;;;;26.89;65.17;95672.28;10429725;28;2181;-73
2023/06/26 07:13:15;;;;;;;;;;;;;;;26.95;64.32;95667.22;10435462;28;1960;-74
2023/06/26 07:18:18;;;;;;;;;;;;;;;26.80;61.67;95671.84;10435333;28;2010;-74
2023/06/26 07:23:20;;;;;;;;;;;;;;;27.08;63.17;95676.03;10427989;28;2009;-73
2023/06/26 07:28:23;;;;;;;;;;;;;;;26.78;62.72;95670.63;10436525;28;1985;-73
2023/06/26 07:33:26;;;;;;;;;;;;;;;27.12;59.54;95668.56;10438542;28;1906;-73
2023/06/26 07:38:28;;;;;;;;;;;;;;;27.00;61.42;95666.09;10434996;28;1958;-74
2023/06/26 07:43:31;;;;;;;;;;;;;;;27.21;63.44;95678.09;10438807;28;4375;-73
2023/06/26 07:48:33;;;;;;;;;;;;;;;27.64;62.42;95672.06;10432841;28;2021;-73
2023/06/26 07:53:35;;;;;;;;;;;;;;;27.87;63.74;95675.38;10439335;28;1883;-74
2023/06/26 07:58:38;;;;;;;;;;;;;;;27.95;61.33;95676.19;10432555;28;2217;-74
2023/06/26 08:03:41;;;;;;;;;;;;;;;27.70;63.14;95670.53;10437453;28;1960;-75
2023/06/26 08:08:43;;;;;;;;;;;;;;;27.99;62.41;95666.75;10432160;28;1983;-75
2023/06/26 08:13:46;;;;;;;;;;;;;;;28.16;61.38;95658.88;10444816;28;2391;-75
2023/06/26 08:18:48;;;;;;;;;;;;;;;28.24;62.64;95658.50;10432085;28;2205;-74
2023/06/26 08:23:51;;;;;;;;;;;;;;;28.34;61.69;95662.53;10432577;28;2217;-74
2023/06/26 08:28:53;;;;;;;;;;;;;;;28.39;62.13;95659.38;10433106;28;1952;-75
2023/06/26 08:33:55;;;;;;;;;;;;;;;28.57;60.54;95661.38;10433683;28;1928;-76
2023/06/26 08:38:58;;;;;;;;;;;;;;;28.38;60.71;95657.81;10442171;28;1945;-74
2023/06/26 08:44:00;;;;;;;;;;;;;;;28.58;60.78;95651.91;10430780;28;4355;-75
2023/06/26 08:49:03;;;;;;;;;;;;;;;29.00;59.88;95646.41;10431047;28;2142;-75
2023/06/26 08:54:05;;;;;;;;;;;;;;;29.03;57.39;95653.94;10429352;28;1982;-76
2023/06/26 08:59:10;;;;;;;;;;;;;;;29.28;56.60;95651.16;10428528;28;2058;-74
2023/06/26 09:04:12;;;;;;;;;;;;;;;29.45;54.60;95649.53;10432346;28;2031;-75
2023/06/26 09:09:15;;;;;;;;;;;;;;;29.43;55.31;95645.59;10427909;28;2218;-75
2023/06/26 09:14:17;;;;;;;;;;;;;;;29.45;55.85;95635.69;10429892;28;1963;-75
2023/06/26 09:19:20;;;;;;;;;;;;;;;29.42;51.95;95644.78;10425697;28;2262;-73
2023/06/26 09:24:22;;;;;;;;;;;;;;;29.10;55.31;95622.69;10430705;28;2078;-74
2023/06/26 09:29:26;;;;;;;;;;;;;;;29.87;52.09;95626.47;10429398;28;1994;-73
2023/06/26 09:34:28;;;;;;;;;;;;;;;29.91;50.83;95626.47;10431061;28;2079;-73
2023/06/26 09:39:31;;;;;;;;;;;;;;;29.85;49.79;95622.53;10413058;28;1990;-73
2023/06/26 09:44:33;;;;;;;;;;;;;;;30.11;45.86;95616.50;10431673;28;1976;-74
2023/06/26 09:49:36;;;;;;;;;;;;;;;30.06;46.44;95605.81;10427952;28;1990;-73
2023/06/26 09:54:39;;;;;;;;;;;;;;;30.57;43.81;95598.78;10432521;28;2051;-73
2023/06/26 09:59:42;;;;;;;;;;;;;;;30.35;44.24;95595.38;10427629;28;2034;-73
2023/06/26 10:04:44;;;;;;;;;;;;;;;30.76;41.83;95591.13;10428143;28;2012;-74
2023/06/26 10:09:48;;;;;;;;;;;;;;;30.65;39.52;95580.88;10427369;28;1926;-73
2023/06/26 10:14:51;;;;;;;;;;;;;;;30.94;40.46;95584.25;10427834;28;2455;-72
2023/06/26 10:19:56;;;;;;;;;;;;;;;31.47;40.41;95585.72;10421546;28;2053;-72
2023/06/26 10:24:58;;;;;;;;;;;;;;;31.45;39.84;95574.22;10432414;28;1970;-73
2023/06/26 10:30:01;;;;;;;;;;;;;;;31.59;36.71;95586.38;10436818;28;1928;-74
2023/06/26 10:35:03;;;;;;;;;;;;;;;31.47;37.67;95573.81;10433070;28;2465;-74
2023/06/26 10:40:06;;;;;;;;;;;;;;;32.17;36.89;95574.13;10433257;28;2149;-74
2023/06/26 10:45:08;;;;;;;;;;;;;;;33.18;34.74;95576.16;10429936;28;4682;-73
2023/06/26 10:50:11;;;;;;;;;;;;;;;31.47;35.99;95577.38;10429284;28;2144;-74
2023/06/26 10:55:19;;;;;;;;;;;;;;;31.48;36.18;95578.16;10421780;28;2045;-74
2023/06/26 11:00:22;;;;;;;;;;;;;;;31.91;35.62;95558.22;10424032;28;1971;-74
2023/06/26 11:05:24;;;;;;;;;;;;;;;30.69;38.19;95572.56;10423921;28;1981;-75
2023/06/26 11:10:27;;;;;;;;;;;;;;;31.52;35.65;95570.59;10431088;28;2456;-74
2023/06/26 11:15:29;;;;;;;;;;;;;;;31.97;35.64;95562.91;10422872;28;2006;-73
2023/06/26 11:20:32;;;;;;;;;;;;;;;32.39;34.46;95555.19;10422054;28;1977;-73
2023/06/26 11:25:35;;;;;;;;;;;;;;;32.56;34.73;95556.09;10425720;28;2005;-73
2023/06/26 11:30:39;;;;;;;;;;;;;;;32.80;35.08;95560.47;10426746;28;2195;-73
2023/06/26 11:35:42;;;;;;;;;;;;;;;31.63;37.56;95565.69;10427997;28;2138;-72
2023/06/26 11:40:47;;;;;;;;;;;;;;;32.24;36.34;95557.34;10428342;28;1913;-74
2023/06/26 11:45:50;;;;;;;;;;;;;;;32.60;35.93;95559.63;10423135;28;5147;-73
2023/06/26 11:50:55;;;;;;;;;;;;;;;32.29;37.32;95550.53;10416178;28;1968;-74
2023/06/26 11:55:57;;;;;;;;;;;;;;;32.29;36.73;95542.97;10430793;28;1647;-73
2023/06/26 12:01:00;;;;;;;;;;;;;;;31.98;36.34;95541.44;10411639;28;2732;-74
2023/06/26 12:06:05;;;;;;;;;;;;;;;32.07;35.60;95538.94;10428765;28;2327;-74
2023/06/26 12:11:08;;;;;;;;;;;;;;;31.53;37.39;95544.38;10432444;28;2022;-74
2023/06/26 12:16:10;;;;;;;;;;;;;;;30.85;38.66;95549.81;10433581;28;1978;-74
2023/06/26 12:21:13;;;;;;;;;;;;;;;30.72;38.83;95543.22;10434361;28;1992;-73
2023/06/26 12:26:21;;;;;;;;;;;;;;;31.65;38.76;95545.81;10431045;28;1968;-73
2023/06/26 12:31:24;;;;;;;;;;;;;;;32.19;36.06;95540.34;10428992;28;1992;-74
2023/06/26 12:36:26;;;;;;;;;;;;;;;32.23;35.43;95535.53;10434797;28;1939;-72
2023/06/26 12:41:29;;;;;;;;;;;;;;;32.65;34.89;95536.88;10437499;28;4545;-73
2023/06/26 12:46:31;;;;;;;;;;;;;;;33.15;33.60;95530.47;10429154;28;2032;-74
2023/06/26 12:51:34;;;;;;;;;;;;;;;33.29;33.00;95527.41;10436809;28;2335;-73
2023/06/26 12:56:36;;;;;;;;;;;;;;;32.57;32.90;95532.63;10430646;28;1972;-73
2023/06/26 13:01:39;;;;;;;;;;;;;;;32.59;32.70;95519.09;10434625;28;2318;-74
2023/06/26 13:06:41;;;;;;;;;;;;;;;32.75;34.64;95521.97;10430204;28;1975;-74
2023/06/26 13:11:44;;;;;;;;;;;;;;;32.91;33.78;95524.13;10433964;28;2013;-73
2023/06/26 13:16:47;;;;;;;;;;;;;;;32.45;34.81;95511.00;10428438;28;1975;-74
2023/06/26 13:21:50;;;;;;;;;;;;;;;32.77;35.27;95514.00;10428812;28;1957;-75
2023/06/26 13:26:53;;;;;;;;;;;;;;;32.08;35.65;95507.16;10424746;28;2066;-74
2023/06/26 13:32:04;;;;;;;;;;;;;;;31.70;38.23;95487.81;10423925;28;1983;-76
2023/06/26 13:37:06;;;;;;;;;;;;;;;31.65;37.81;95502.16;10423120;28;2076;-73
2023/06/26 13:42:11;;;;;;;;;;;;;;;31.08;39.09;95508.38;10423065;28;4474;-75
2023/06/26 13:47:15;;;;;;;;;;;;;;;31.59;38.08;95498.25;10422330;28;2083;-76
2023/06/26 13:52:26;;;;;;;;;;;;;;;31.77;36.83;95494.47;10407004;28;1985;-75
2023/06/26 13:57:31;;;;;;;;;;;;;;;31.60;37.81;95494.28;10420832;28;2280;-75
2023/06/26 14:02:36;;;;;;;;;;;;;;;31.82;37.00;95491.25;10419984;28;1962;-76
2023/06/26 14:07:39;;;;;;;;;;;;;;;31.62;36.38;95488.28;10426870;28;1994;-76
2023/06/26 14:12:44;;;;;;;;;;;;;;;32.11;35.88;95492.41;10419167;28;1981;-75
2023/06/26 14:17:51;;;;;;;;;;;;;;;32.13;35.68;95475.28;10417791;28;2102;-75
2023/06/26 14:23:03;;;;;;;;;;;;;;;32.53;34.50;95484.63;10421625;28;2050;-75
2023/06/26 14:28:08;;;;;;;;;;;;;;;32.64;34.38;95479.66;10430162;28;1852;-75
2023/06/26 14:33:11;;;;;;;;;;;;;;;32.15;34.88;95479.25;10428373;28;1981;-76
2023/06/26 14:38:14;;;;;;;;;;;;;;;32.13;35.75;95472.50;10433653;28;1868;-75
2023/06/26 14:43:25;;;;;;;;;;;;;;;32.19;35.33;95463.28;10429893;28;4518;-77
2023/06/26 14:48:28;;;;;;;;;;;;;;;32.03;36.16;95477.03;10431594;28;1915;-73
2023/06/26 14:53:32;;;;;;;;;;;;;;;32.10;34.97;95467.81;10435777;28;2276;-76
2023/06/26 14:58:35;;;;;;;;;;;;;;;32.40;35.13;95467.75;10431153;28;1871;-75
2023/06/26 15:03:37;;;;;;;;;;;;;;;31.46;36.78;95461.13;10419374;28;2080;-75
2023/06/26 15:08:40;;;;;;;;;;;;;;;32.03;38.87;95452.03;10436430;28;1855;-74
2023/06/26 15:13:42;;;;;;;;;;;;;;;31.86;36.91;95453.84;10434288;28;1984;-74
2023/06/26 15:18:45;;;;;;;;;;;;;;;31.26;38.22;95463.00;10439863;28;1877;-74
2023/06/26 15:23:47;;;;;;;;;;;;;;;30.66;38.68;95457.63;10433882;28;1904;-74
2023/06/26 15:28:50;;;;;;;;;;;;;;;30.27;39.40;95455.19;10434607;28;2012;-74
2023/06/26 15:33:52;;;;;;;;;;;;;;;30.19;39.62;95444.59;10435412;28;1918;-75
2023/06/26 15:38:54;;;;;;;;;;;;;;;30.26;40.98;95441.75;10435160;28;1876;-76
2023/06/26 15:43:57;;;;;;;;;;;;;;;30.42;40.57;95433.69;10428807;28;4841;-74
2023/06/26 15:48:59;;;;;;;;;;;;;;;29.75;41.47;95446.06;10432312;28;2236;-73
2023/06/26 15:54:02;;;;;;;;;;;;;;;29.98;41.00;95434.44;10431775;28;1909;-74
2023/06/26 15:59:04;;;;;;;;;;;;;;;30.18;43.18;95440.25;10434474;28;2146;-75
2023/06/26 16:04:07;;;;;;;;;;;;;;;29.43;46.54;95452.56;10429884;28;1972;-74
2023/06/26 16:09:09;;;;;;;;;;;;;;;28.97;51.82;95458.28;10432676;28;1955;-75
2023/06/26 16:14:11;;;;;;;;;;;;;;;28.48;57.63;95460.72;10437897;28;1910;-75
2023/06/26 16:19:16;;;;;;;;;;;;;;;28.11;62.29;95446.50;10438538;28;1880;-76
2023/06/26 16:24:19;;;;;;;;;;;;;;;27.92;66.57;95436.63;10437691;28;2011;-77
2023/06/26 16:29:21;;;;;;;;;;;;;;;27.85;67.48;95434.66;10431677;28;1941;-77
2023/06/26 16:34:24;;;;;;;;;;;;;;;27.74;70.19;95440.19;10418146;28;1962;-75
2023/06/26 16:39:26;;;;;;;;;;;;;;;27.77;70.58;95451.63;10436029;28;1937;-75
2023/06/26 16:44:29;;;;;;;;;;;;;;;27.83;70.15;95453.59;10434709;28;4387;-75
2023/06/26 16:49:31;;;;;;;;;;;;;;;27.66;72.76;95441.31;10432620;28;2344;-75
2023/06/26 16:54:34;;;;;;;;;;;;;;;27.42;76.23;95444.78;10432857;28;1882;-75
2023/06/26 16:59:36;;;;;;;;;;;;;;;27.35;76.05;95456.59;10433867;28;1866;-75
2023/06/26 17:04:39;;;;;;;;;;;;;;;27.25;77.04;95465.66;10436043;28;1952;-75
2023/06/26 17:09:42;;;;;;;;;;;;;;;27.18;78.86;95462.88;10438204;28;1975;-75
2023/06/26 17:14:44;;;;;;;;;;;;;;;26.98;81.52;95464.31;10441387;28;1888;-75
2023/06/26 17:19:47;;;;;;;;;;;;;;;26.63;84.26;95466.50;10440687;28;2242;-76
2023/06/26 17:24:51;;;;;;;;;;;;;;;26.21;90.99;95469.72;10443282;28;2060;-75
2023/06/26 17:29:53;;;;;;;;;;;;;;;25.82;96.68;95486.66;10435889;28;1984;-75
2023/06/26 17:34:56;;;;;;;;;;;;;;;25.74;99.29;95475.97;10435776;28;1998;-76
2023/06/26 17:39:58;;;;;;;;;;;;;;;25.50;100.00;95477.25;10440248;28;1985;-76
2023/06/26 17:45:01;;;;;;;;;;;;;;;25.47;100.00;95472.53;10445092;28;4529;-75
2023/06/26 17:50:04;;;;;;;;;;;;;;;25.30;100.00;95466.44;10449941;28;2094;-75
2023/06/26 17:55:07;;;;;;;;;;;;;;;25.18;100.00;95485.94;10445703;28;1976;-75
2023/06/26 18:00:09;;;;;;;;;;;;;;;25.10;100.00;95506.28;10437246;28;1949;-74
2023/06/26 18:05:12;;;;;;;;;;;;;;;24.84;100.00;95514.53;10443492;28;1901;-74
2023/06/26 18:10:15;;;;;;;;;;;;;;;24.66;100.00;95506.03;10444433;28;2018;-75
2023/06/26 18:15:17;;;;;;;;;;;;;;;24.60;100.00;95519.28;10441634;28;1897;-75
2023/06/26 18:20:20;;;;;;;;;;;;;;;24.58;100.00;95516.13;10434982;28;2037;-76
2023/06/26 18:25:23;;;;;;;;;;;;;;;24.52;100.00;95539.59;10441713;28;1896;-75
2023/06/26 18:30:25;;;;;;;;;;;;;;;24.31;100.00;95566.69;10425404;28;2037;-74
2023/06/26 18:35:28;;;;;;;;;;;;;;;23.82;100.00;95568.19;10446725;28;1841;-74
2023/06/26 18:40:30;;;;;;;;;;;;;;;23.68;100.00;95584.38;10440182;28;2231;-74
2023/06/26 18:45:33;;;;;;;;;;;;;;;23.34;100.00;95584.03;10437794;28;4529;-74
2023/06/26 18:50:35;;;;;;;;;;;;;;;23.52;100.00;95603.63;10446194;28;1908;-76
2023/06/26 18:55:40;;;;;;;;;;;;;;;23.43;100.00;95608.53;10444523;28;1884;-74
2023/06/26 19:00:43;;;;;;;;;;;;;;;23.28;100.00;95601.13;10422206;28;1927;-78
2023/06/26 19:05:45;;;;;;;;;;;;;;;23.31;100.00;95597.69;10437972;28;1981;-77
2023/06/26 19:10:48;;;;;;;;;;;;;;;23.12;100.00;95590.25;10438930;28;2036;-77
2023/06/26 19:15:50;;;;;;;;;;;;;;;22.95;100.00;95594.16;10431622;28;2148;-77
2023/06/26 19:20:53;;;;;;;;;;;;;;;22.91;100.00;95596.84;10439616;28;1907;-77
2023/06/26 19:25:55;;;;;;;;;;;;;;;22.87;100.00;95600.63;10447360;28;1896;-78
2023/06/26 19:30:58;;;;;;;;;;;;;;;22.82;100.00;95611.84;10447152;28;2021;-79
2023/06/26 19:36:01;;;;;;;;;;;;;;;22.83;100.00;95618.91;10446555;28;2310;-85
2023/06/26 19:41:03;;;;;;;;;;;;;;;22.77;100.00;95626.59;10455548;28;1900;-79
2023/06/26 19:46:06;;;;;;;;;;;;;;;22.64;100.00;95641.53;10454936;28;1993;-85
2023/06/26 19:51:08;;;;;;;;;;;;;;;22.53;100.00;95646.78;10454327;28;1985;-90
2023/06/26 19:56:11;;;;;;;;;;;;;;;22.54;100.00;95661.28;10444849;28;2169;-71
2023/06/26 20:01:14;;;;;;;;;;;;;;;22.40;100.00;95664.44;10446075;28;1932;-73
2023/06/26 20:06:16;;;;;;;;;;;;;;;22.31;100.00;95666.53;10452281;28;1904;-72
2023/06/26 20:11:18;;;;;;;;;;;;;;;22.29;100.00;95679.78;10448525;28;2369;-73
2023/06/26 20:16:21;;;;;;;;;;;;;;;22.16;100.00;95686.47;10452202;28;1908;-72
2023/06/26 20:21:23;;;;;;;;;;;;;;;22.09;100.00;95687.88;10449870;28;1993;-72
2023/06/26 20:26:26;;;;;;;;;;;;;;;21.96;100.00;95683.56;10451699;28;1928;-72
2023/06/26 20:31:28;;;;;;;;;;;;;;;21.81;100.00;95692.50;10445449;28;2279;-74
2023/06/26 20:36:31;;;;;;;;;;;;;;;21.70;100.00;95702.38;10449635;28;2165;-74
2023/06/26 20:41:33;;;;;;;;;;;;;;;21.59;100.00;95699.31;10451506;28;4569;-74
2023/06/26 20:46:37;;;;;;;;;;;;;;;21.48;100.00;95701.72;10435125;28;2051;-71
2023/06/26 20:51:39;;;;;;;;;;;;;;;21.44;100.00;95716.41;10445964;28;1918;-73
2023/06/26 20:56:41;;;;;;;;;;;;;;;21.31;100.00;95708.25;10444657;28;1906;-72
2023/06/26 21:01:48;;;;;;;;;;;;;;;21.20;100.00;95718.03;10442350;28;2297;-73
2023/06/26 21:06:52;;;;;;;;;;;;;;;21.22;100.00;95717.69;10445995;28;2086;-72
2023/06/26 21:11:54;;;;;;;;;;;;;;;21.11;100.00;95719.28;10445140;28;2540;-73
2023/06/26 21:16:57;;;;;;;;;;;;;;;20.95;100.00;95732.84;10445901;28;1919;-72
2023/06/26 21:22:00;;;;;;;;;;;;;;;20.89;100.00;95739.66;10432208;28;1910;-73
2023/06/26 21:27:02;;;;;;;;;;;;;;;20.88;100.00;95746.25;10439790;28;2385;-74
2023/06/26 21:32:05;;;;;;;;;;;;;;;20.88;100.00;95747.06;10444831;28;2059;-72
2023/06/26 21:37:07;;;;;;;;;;;;;;;20.94;100.00;95751.16;10453155;28;1954;-72
2023/06/26 21:42:10;;;;;;;;;;;;;;;20.94;100.00;95767.56;10434439;28;4624;-72
2023/06/26 21:47:13;;;;;;;;;;;;;;;20.97;100.00;95769.59;10444483;28;2099;-73
2023/06/26 21:52:16;;;;;;;;;;;;;;;21.09;100.00;95770.75;10444255;28;1986;-73
2023/06/26 21:57:18;;;;;;;;;;;;;;;21.05;100.00;95774.16;10448085;28;1986;-73
2023/06/26 22:02:21;;;;;;;;;;;;;;;20.98;100.00;95784.84;10441480;28;2049;-72
2023/06/26 22:07:23;;;;;;;;;;;;;;;21.07;100.00;95787.50;10447875;28;2070;-72
2023/06/26 22:12:26;;;;;;;;;;;;;;;21.07;100.00;95794.91;10449098;28;1972;-73
2023/06/26 22:17:29;;;;;;;;;;;;;;;20.97;100.00;95807.84;10439036;28;2045;-71
2023/06/26 22:22:31;;;;;;;;;;;;;;;20.99;100.00;95812.97;10442057;28;2298;-71
2023/06/26 22:27:34;;;;;;;;;;;;;;;20.93;100.00;95812.41;10448828;28;1884;-72
2023/06/26 22:32:37;;;;;;;;;;;;;;;20.87;100.00;95810.25;10452101;28;1967;-71
2023/06/26 22:37:40;;;;;;;;;;;;;;;20.89;100.00;95825.16;10447995;28;1820;-74
2023/06/26 22:42:42;;;;;;;;;;;;;;;20.76;100.00;95823.53;10439458;28;4561;-73
2023/06/26 22:47:45;;;;;;;;;;;;;;;20.79;100.00;95834.56;10443102;28;1896;-74
2023/06/26 22:52:48;;;;;;;;;;;;;;;20.82;100.00;95835.03;10445099;28;2220;-76
2023/06/26 22:57:50;;;;;;;;;;;;;;;20.75;99.88;95835.59;10446331;28;1907;-74
2023/06/26 23:02:53;;;;;;;;;;;;;;;20.65;96.82;95838.75;10437371;28;2339;-73
2023/06/26 23:07:57;;;;;;;;;;;;;;;20.49;94.69;95836.66;10445976;28;1903;-73
2023/06/26 23:13:00;;;;;;;;;;;;;;;20.33;93.72;95826.63;10443261;28;1976;-75
2023/06/26 23:18:02;;;;;;;;;;;;;;;20.16;94.62;95828.38;10441941;28;1872;-73
2023/06/26 23:23:05;;;;;;;;;;;;;;;20.11;93.86;95830.53;10444875;28;2186;-73
2023/06/26 23:28:08;;;;;;;;;;;;;;;20.12;93.88;95837.56;10446419;28;2021;-74
2023/06/26 23:33:10;;;;;;;;;;;;;;;20.10;96.19;95839.81;10443564;28;1909;-74
2023/06/26 23:38:14;;;;;;;;;;;;;;;19.88;94.31;95846.41;10419562;28;1831;-71
2023/06/26 23:43:16;;;;;;;;;;;;;;;19.75;93.00;95845.53;10444000;28;4517;-72
2023/06/26 23:48:19;;;;;;;;;;;;;;;19.63;94.18;95856.34;10442339;28;1842;-73
2023/06/26 23:53:21;;;;;;;;;;;;;;;19.60;93.67;95854.28;10441913;28;1902;-74
2023/06/26 23:58:24;;;;;;;;;;;;;;;19.50;94.56;95866.31;10439810;28;1506;-73
